sensor_id;sensor_type;location;lat;lon;timestamp;temperature;humidity
10968;DHT22;5536;49.602;10.980;2022-09-02T00:01:33;15.20;99.90
10968;DHT22;5536;49.602;10.980;2022-09-02T00:04:05;15.30;99.90
10968;DHT22;5536;49.602;10.980;2022-09-02T00:06:33;15.20;99.90
10968;DHT22;5536;49.602;10.980;2022-09-02T00:09:02;15.30;99.90
10968;DHT22;5536;49.602;10.980;2022-09-02T00:11:31;15.20;99.90
10968;DHT22;5536;49.602;10.980;2022-09-02T00:14:00;15.10;99.90
10968;DHT22;5536;49.602;10.980;2022-09-02T00:16:30;15.10;99.90
10968;DHT22;5536;49.602;10.980;2022-09-02T00:18:58;15.00;99.90
10968;DHT22;5536;49.602;10.980;2022-09-02T00:21:27;14.90;99.90
10968;DHT22;5536;49.602;10.980;2022-09-02T00:23:54;14.80;99.90
10968;DHT22;5536;49.602;10.980;2022-09-02T00:26:21;14.60;99.90
10968;DHT22;5536;49.602;10.980;2022-09-02T00:28:49;14.60;99.90
10968;DHT22;5536;49.602;10.980;2022-09-02T00:31:16;14.60;99.90
10968;DHT22;5536;49.602;10.980;2022-09-02T00:33:44;14.70;99.90
10968;DHT22;5536;49.602;10.980;2022-09-02T00:36:11;14.50;99.90
10968;DHT22;5536;49.602;10.980;2022-09-02T00:38:38;14.50;99.90
10968;DHT22;5536;49.602;10.980;2022-09-02T00:41:08;14.40;99.90
10968;DHT22;5536;49.602;10.980;2022-09-02T00:43:43;14.30;99.90
10968;DHT22;5536;49.602;10.980;2022-09-02T00:46:12;14.40;99.90
10968;DHT22;5536;49.602;10.980;2022-09-02T00:48:45;14.40;99.90
10968;DHT22;5536;49.602;10.980;2022-09-02T00:51:15;14.50;99.90
10968;DHT22;5536;49.602;10.980;2022-09-02T00:53:43;14.50;99.90
10968;DHT22;5536;49.602;10.980;2022-09-02T00:56:14;14.50;99.90
10968;DHT22;5536;49.602;10.980;2022-09-02T00:58:42;14.50;99.90
10968;DHT22;5536;49.602;10.980;2022-09-02T01:01:10;14.40;99.90
10968;DHT22;5536;49.602;10.980;2022-09-02T01:03:38;14.40;99.90
10968;DHT22;5536;49.602;10.980;2022-09-02T01:06:09;14.20;99.90
10968;DHT22;5536;49.602;10.980;2022-09-02T01:08:42;14.20;99.90
10968;DHT22;5536;49.602;10.980;2022-09-02T01:11:11;14.30;99.90
10968;DHT22;5536;49.602;10.980;2022-09-02T01:13:40;14.40;99.90
10968;DHT22;5536;49.602;10.980;2022-09-02T01:16:12;14.40;99.90
10968;DHT22;5536;49.602;10.980;2022-09-02T01:18:44;14.40;99.90
10968;DHT22;5536;49.602;10.980;2022-09-02T01:21:13;14.30;99.90
10968;DHT22;5536;49.602;10.980;2022-09-02T01:23:41;14.30;99.90
10968;DHT22;5536;49.602;10.980;2022-09-02T01:26:08;14.30;99.90
10968;DHT22;5536;49.602;10.980;2022-09-02T01:28:35;14.20;99.90
10968;DHT22;5536;49.602;10.980;2022-09-02T01:31:02;14.20;99.90
10968;DHT22;5536;49.602;10.980;2022-09-02T01:33:29;14.20;99.90
10968;DHT22;5536;49.602;10.980;2022-09-02T01:35:57;14.20;99.90
10968;DHT22;5536;49.602;10.980;2022-09-02T01:38:25;14.20;99.90
10968;DHT22;5536;49.602;10.980;2022-09-02T01:40:54;14.20;99.90
10968;DHT22;5536;49.602;10.980;2022-09-02T01:43:22;14.20;99.90
10968;DHT22;5536;49.602;10.980;2022-09-02T01:45:51;14.10;99.90
10968;DHT22;5536;49.602;10.980;2022-09-02T01:48:19;14.20;99.90
10968;DHT22;5536;49.602;10.980;2022-09-02T01:50:48;14.20;99.90
10968;DHT22;5536;49.602;10.980;2022-09-02T01:53:15;14.00;99.90
10968;DHT22;5536;49.602;10.980;2022-09-02T01:55:43;13.90;99.90
10968;DHT22;5536;49.602;10.980;2022-09-02T01:58:12;14.00;99.90
10968;DHT22;5536;49.602;10.980;2022-09-02T02:00:39;14.00;99.90
10968;DHT22;5536;49.602;10.980;2022-09-02T02:03:07;14.00;99.90
10968;DHT22;5536;49.602;10.980;2022-09-02T02:05:34;14.00;99.90
10968;DHT22;5536;49.602;10.980;2022-09-02T02:08:02;13.60;99.90
10968;DHT22;5536;49.602;10.980;2022-09-02T02:10:29;13.50;99.90
10968;DHT22;5536;49.602;10.980;2022-09-02T02:12:56;13.60;99.90
10968;DHT22;5536;49.602;10.980;2022-09-02T02:15:24;13.90;99.90
10968;DHT22;5536;49.602;10.980;2022-09-02T02:17:51;14.00;99.90
10968;DHT22;5536;49.602;10.980;2022-09-02T02:20:19;14.00;99.90
10968;DHT22;5536;49.602;10.980;2022-09-02T02:22:47;14.10;99.90
10968;DHT22;5536;49.602;10.980;2022-09-02T02:25:15;14.00;99.90
10968;DHT22;5536;49.602;10.980;2022-09-02T02:27:43;13.80;99.90
10968;DHT22;5536;49.602;10.980;2022-09-02T02:30:12;13.60;99.90
10968;DHT22;5536;49.602;10.980;2022-09-02T02:32:42;13.40;99.90
10968;DHT22;5536;49.602;10.980;2022-09-02T02:35:10;13.30;99.90
10968;DHT22;5536;49.602;10.980;2022-09-02T02:37:37;13.20;99.90
10968;DHT22;5536;49.602;10.980;2022-09-02T02:40:06;13.30;99.90
10968;DHT22;5536;49.602;10.980;2022-09-02T02:42:33;13.50;99.90
10968;DHT22;5536;49.602;10.980;2022-09-02T02:45:01;13.40;99.90
10968;DHT22;5536;49.602;10.980;2022-09-02T02:47:28;13.30;99.90
10968;DHT22;5536;49.602;10.980;2022-09-02T02:49:56;13.30;99.90
10968;DHT22;5536;49.602;10.980;2022-09-02T02:52:23;13.40;99.90
10968;DHT22;5536;49.602;10.980;2022-09-02T02:54:51;13.10;99.90
10968;DHT22;5536;49.602;10.980;2022-09-02T02:57:18;13.00;99.90
10968;DHT22;5536;49.602;10.980;2022-09-02T02:59:45;12.80;99.90
10968;DHT22;5536;49.602;10.980;2022-09-02T03:02:12;12.90;99.90
10968;DHT22;5536;49.602;10.980;2022-09-02T03:04:39;12.80;99.90
10968;DHT22;5536;49.602;10.980;2022-09-02T03:07:08;12.80;99.90
10968;DHT22;5536;49.602;10.980;2022-09-02T03:09:36;12.90;99.90
10968;DHT22;5536;49.602;10.980;2022-09-02T03:12:03;13.10;99.90
10968;DHT22;5536;49.602;10.980;2022-09-02T03:14:31;13.00;99.90
10968;DHT22;5536;49.602;10.980;2022-09-02T03:16:58;12.90;99.90
10968;DHT22;5536;49.602;10.980;2022-09-02T03:19:25;13.10;99.90
10968;DHT22;5536;49.602;10.980;2022-09-02T03:21:53;13.00;99.90
10968;DHT22;5536;49.602;10.980;2022-09-02T03:24:21;12.90;99.90
10968;DHT22;5536;49.602;10.980;2022-09-02T03:26:48;12.90;99.90
10968;DHT22;5536;49.602;10.980;2022-09-02T03:29:15;12.90;99.90
10968;DHT22;5536;49.602;10.980;2022-09-02T03:31:42;13.00;99.90
10968;DHT22;5536;49.602;10.980;2022-09-02T03:34:09;12.90;99.90
10968;DHT22;5536;49.602;10.980;2022-09-02T03:36:38;12.90;99.90
10968;DHT22;5536;49.602;10.980;2022-09-02T03:39:10;12.90;99.90
10968;DHT22;5536;49.602;10.980;2022-09-02T03:41:39;12.80;99.90
10968;DHT22;5536;49.602;10.980;2022-09-02T03:44:06;12.60;99.90
10968;DHT22;5536;49.602;10.980;2022-09-02T03:46:34;12.50;99.90
10968;DHT22;5536;49.602;10.980;2022-09-02T03:49:01;12.40;99.90
10968;DHT22;5536;49.602;10.980;2022-09-02T03:51:28;12.50;99.90
10968;DHT22;5536;49.602;10.980;2022-09-02T03:53:56;12.60;99.90
10968;DHT22;5536;49.602;10.980;2022-09-02T03:56:23;12.40;99.90
10968;DHT22;5536;49.602;10.980;2022-09-02T03:58:52;12.40;99.90
10968;DHT22;5536;49.602;10.980;2022-09-02T04:01:22;12.40;99.90
10968;DHT22;5536;49.602;10.980;2022-09-02T04:03:50;12.30;99.90
10968;DHT22;5536;49.602;10.980;2022-09-02T04:06:20;12.30;99.90
10968;DHT22;5536;49.602;10.980;2022-09-02T04:08:49;12.20;99.90
10968;DHT22;5536;49.602;10.980;2022-09-02T04:11:18;12.20;99.90
10968;DHT22;5536;49.602;10.980;2022-09-02T04:13:46;12.20;99.90
10968;DHT22;5536;49.602;10.980;2022-09-02T04:16:17;12.30;99.90
10968;DHT22;5536;49.602;10.980;2022-09-02T04:18:44;12.00;99.90
10968;DHT22;5536;49.602;10.980;2022-09-02T04:21:12;11.70;99.90
10968;DHT22;5536;49.602;10.980;2022-09-02T04:23:39;11.60;99.90
10968;DHT22;5536;49.602;10.980;2022-09-02T04:26:10;11.70;99.90
10968;DHT22;5536;49.602;10.980;2022-09-02T04:28:37;11.40;99.90
10968;DHT22;5536;49.602;10.980;2022-09-02T04:31:05;11.50;99.90
10968;DHT22;5536;49.602;10.980;2022-09-02T04:33:34;11.80;99.90
10968;DHT22;5536;49.602;10.980;2022-09-02T04:36:04;11.50;99.90
10968;DHT22;5536;49.602;10.980;2022-09-02T04:38:31;11.70;99.90
10968;DHT22;5536;49.602;10.980;2022-09-02T04:40:58;12.00;99.90
10968;DHT22;5536;49.602;10.980;2022-09-02T04:43:26;12.00;99.90
10968;DHT22;5536;49.602;10.980;2022-09-02T04:45:53;12.00;99.90
10968;DHT22;5536;49.602;10.980;2022-09-02T04:48:22;12.00;99.90
10968;DHT22;5536;49.602;10.980;2022-09-02T04:50:50;11.90;99.90
10968;DHT22;5536;49.602;10.980;2022-09-02T04:53:18;11.90;99.90
10968;DHT22;5536;49.602;10.980;2022-09-02T04:55:45;11.90;99.90
10968;DHT22;5536;49.602;10.980;2022-09-02T04:58:12;11.90;99.90
10968;DHT22;5536;49.602;10.980;2022-09-02T05:00:40;12.00;99.90
10968;DHT22;5536;49.602;10.980;2022-09-02T05:03:07;12.10;99.90
10968;DHT22;5536;49.602;10.980;2022-09-02T05:05:36;12.10;99.90
10968;DHT22;5536;49.602;10.980;2022-09-02T05:08:05;12.30;99.90
10968;DHT22;5536;49.602;10.980;2022-09-02T05:10:32;12.40;99.90
10968;DHT22;5536;49.602;10.980;2022-09-02T05:12:59;12.50;99.90
10968;DHT22;5536;49.602;10.980;2022-09-02T05:15:27;12.50;99.90
10968;DHT22;5536;49.602;10.980;2022-09-02T05:17:54;12.60;99.90
10968;DHT22;5536;49.602;10.980;2022-09-02T05:20:21;12.40;99.90
10968;DHT22;5536;49.602;10.980;2022-09-02T05:22:48;12.70;99.90
10968;DHT22;5536;49.602;10.980;2022-09-02T05:25:17;12.80;99.90
10968;DHT22;5536;49.602;10.980;2022-09-02T05:27:44;12.80;99.90
10968;DHT22;5536;49.602;10.980;2022-09-02T05:30:13;12.90;99.90
10968;DHT22;5536;49.602;10.980;2022-09-02T05:32:41;13.00;99.90
10968;DHT22;5536;49.602;10.980;2022-09-02T05:35:08;13.00;99.90
10968;DHT22;5536;49.602;10.980;2022-09-02T05:37:35;12.90;99.90
10968;DHT22;5536;49.602;10.980;2022-09-02T05:40:03;12.90;99.90
10968;DHT22;5536;49.602;10.980;2022-09-02T05:42:33;13.00;99.90
10968;DHT22;5536;49.602;10.980;2022-09-02T05:45:01;13.20;99.90
10968;DHT22;5536;49.602;10.980;2022-09-02T05:47:29;13.30;99.90
10968;DHT22;5536;49.602;10.980;2022-09-02T05:49:56;13.40;99.90
10968;DHT22;5536;49.602;10.980;2022-09-02T05:52:26;13.30;99.90
10968;DHT22;5536;49.602;10.980;2022-09-02T05:54:54;13.20;99.90
10968;DHT22;5536;49.602;10.980;2022-09-02T05:57:21;13.40;99.90
10968;DHT22;5536;49.602;10.980;2022-09-02T05:59:50;13.30;99.90
10968;DHT22;5536;49.602;10.980;2022-09-02T06:02:22;13.20;99.90
10968;DHT22;5536;49.602;10.980;2022-09-02T06:04:52;13.10;99.90
10968;DHT22;5536;49.602;10.980;2022-09-02T06:07:21;13.40;99.90
10968;DHT22;5536;49.602;10.980;2022-09-02T06:09:48;13.60;99.90
10968;DHT22;5536;49.602;10.980;2022-09-02T06:12:17;13.60;99.90
10968;DHT22;5536;49.602;10.980;2022-09-02T06:14:47;13.60;99.90
10968;DHT22;5536;49.602;10.980;2022-09-02T06:17:16;13.80;99.90
10968;DHT22;5536;49.602;10.980;2022-09-02T06:19:43;13.90;99.90
10968;DHT22;5536;49.602;10.980;2022-09-02T06:22:11;13.90;99.90
10968;DHT22;5536;49.602;10.980;2022-09-02T06:24:38;13.90;99.90
10968;DHT22;5536;49.602;10.980;2022-09-02T06:27:05;14.10;99.90
10968;DHT22;5536;49.602;10.980;2022-09-02T06:29:32;14.30;99.90
10968;DHT22;5536;49.602;10.980;2022-09-02T06:32:00;14.30;99.90
10968;DHT22;5536;49.602;10.980;2022-09-02T06:34:29;14.20;99.90
10968;DHT22;5536;49.602;10.980;2022-09-02T06:36:56;14.30;99.90
10968;DHT22;5536;49.602;10.980;2022-09-02T06:39:23;14.40;99.90
10968;DHT22;5536;49.602;10.980;2022-09-02T06:41:51;14.60;99.90
10968;DHT22;5536;49.602;10.980;2022-09-02T06:44:19;14.70;99.90
10968;DHT22;5536;49.602;10.980;2022-09-02T06:46:51;14.70;99.90
10968;DHT22;5536;49.602;10.980;2022-09-02T06:49:20;14.70;99.90
10968;DHT22;5536;49.602;10.980;2022-09-02T06:51:50;14.80;99.90
10968;DHT22;5536;49.602;10.980;2022-09-02T06:54:20;14.80;99.90
10968;DHT22;5536;49.602;10.980;2022-09-02T06:56:48;14.90;99.90
10968;DHT22;5536;49.602;10.980;2022-09-02T06:59:16;15.10;99.90
10968;DHT22;5536;49.602;10.980;2022-09-02T07:01:44;15.20;99.90
10968;DHT22;5536;49.602;10.980;2022-09-02T07:04:11;15.30;99.90
10968;DHT22;5536;49.602;10.980;2022-09-02T07:06:57;15.40;99.90
10968;DHT22;5536;49.602;10.980;2022-09-02T07:09:26;15.60;99.90
10968;DHT22;5536;49.602;10.980;2022-09-02T07:11:57;15.70;99.90
10968;DHT22;5536;49.602;10.980;2022-09-02T07:14:24;15.80;99.90
10968;DHT22;5536;49.602;10.980;2022-09-02T07:16:54;15.80;99.90
10968;DHT22;5536;49.602;10.980;2022-09-02T07:19:24;16.00;99.90
10968;DHT22;5536;49.602;10.980;2022-09-02T07:21:52;16.10;99.90
10968;DHT22;5536;49.602;10.980;2022-09-02T07:24:21;16.20;99.90
10968;DHT22;5536;49.602;10.980;2022-09-02T07:26:49;16.30;99.90
10968;DHT22;5536;49.602;10.980;2022-09-02T07:29:16;16.30;99.90
10968;DHT22;5536;49.602;10.980;2022-09-02T07:31:45;16.30;99.90
10968;DHT22;5536;49.602;10.980;2022-09-02T07:34:18;16.30;99.90
10968;DHT22;5536;49.602;10.980;2022-09-02T07:36:56;16.30;99.90
10968;DHT22;5536;49.602;10.980;2022-09-02T07:39:26;16.40;99.90
10968;DHT22;5536;49.602;10.980;2022-09-02T07:41:53;16.50;99.90
10968;DHT22;5536;49.602;10.980;2022-09-02T07:44:21;16.70;99.90
10968;DHT22;5536;49.602;10.980;2022-09-02T07:46:48;16.80;99.90
10968;DHT22;5536;49.602;10.980;2022-09-02T07:49:16;17.00;99.90
10968;DHT22;5536;49.602;10.980;2022-09-02T07:51:47;17.10;99.90
10968;DHT22;5536;49.602;10.980;2022-09-02T07:54:16;17.10;99.90
10968;DHT22;5536;49.602;10.980;2022-09-02T07:56:45;17.20;99.90
10968;DHT22;5536;49.602;10.980;2022-09-02T07:59:14;17.30;99.90
10968;DHT22;5536;49.602;10.980;2022-09-02T08:01:41;17.40;99.90
10968;DHT22;5536;49.602;10.980;2022-09-02T08:04:09;17.40;99.90
10968;DHT22;5536;49.602;10.980;2022-09-02T08:06:37;17.50;99.90
10968;DHT22;5536;49.602;10.980;2022-09-02T08:09:06;17.50;99.90
10968;DHT22;5536;49.602;10.980;2022-09-02T08:11:35;17.70;99.90
10968;DHT22;5536;49.602;10.980;2022-09-02T08:14:05;17.70;99.90
10968;DHT22;5536;49.602;10.980;2022-09-02T08:16:32;17.80;99.90
10968;DHT22;5536;49.602;10.980;2022-09-02T08:18:59;18.00;99.90
10968;DHT22;5536;49.602;10.980;2022-09-02T08:21:27;18.10;99.80
10968;DHT22;5536;49.602;10.980;2022-09-02T08:23:54;18.10;99.40
10968;DHT22;5536;49.602;10.980;2022-09-02T08:26:22;18.20;99.30
10968;DHT22;5536;49.602;10.980;2022-09-02T08:28:53;18.30;99.10
10968;DHT22;5536;49.602;10.980;2022-09-02T08:31:21;18.40;98.30
10968;DHT22;5536;49.602;10.980;2022-09-02T08:33:48;18.50;98.20
10968;DHT22;5536;49.602;10.980;2022-09-02T08:36:16;18.60;97.20
10968;DHT22;5536;49.602;10.980;2022-09-02T08:38:43;18.70;97.30
10968;DHT22;5536;49.602;10.980;2022-09-02T08:41:13;18.80;96.20
10968;DHT22;5536;49.602;10.980;2022-09-02T08:43:43;19.00;95.60
10968;DHT22;5536;49.602;10.980;2022-09-02T08:46:12;19.10;95.30
10968;DHT22;5536;49.602;10.980;2022-09-02T08:48:46;19.20;95.40
10968;DHT22;5536;49.602;10.980;2022-09-02T08:51:19;19.30;95.10
10968;DHT22;5536;49.602;10.980;2022-09-02T08:53:51;19.30;94.40
10968;DHT22;5536;49.602;10.980;2022-09-02T08:56:20;19.30;93.60
10968;DHT22;5536;49.602;10.980;2022-09-02T08:58:50;19.40;93.10
10968;DHT22;5536;49.602;10.980;2022-09-02T09:01:27;19.30;93.60
10968;DHT22;5536;49.602;10.980;2022-09-02T09:04:16;19.40;92.90
10968;DHT22;5536;49.602;10.980;2022-09-02T09:07:06;19.40;92.70
10968;DHT22;5536;49.602;10.980;2022-09-02T09:09:44;19.40;93.00
10968;DHT22;5536;49.602;10.980;2022-09-02T09:12:20;19.60;91.70
10968;DHT22;5536;49.602;10.980;2022-09-02T09:14:53;19.60;90.80
10968;DHT22;5536;49.602;10.980;2022-09-02T09:17:27;19.80;91.00
10968;DHT22;5536;49.602;10.980;2022-09-02T09:19:59;19.80;90.80
10968;DHT22;5536;49.602;10.980;2022-09-02T09:22:30;19.90;90.50
10968;DHT22;5536;49.602;10.980;2022-09-02T09:25:03;20.00;89.60
10968;DHT22;5536;49.602;10.980;2022-09-02T09:27:33;20.00;86.80
10968;DHT22;5536;49.602;10.980;2022-09-02T09:30:00;20.10;86.50
10968;DHT22;5536;49.602;10.980;2022-09-02T09:32:30;20.20;83.60
10968;DHT22;5536;49.602;10.980;2022-09-02T09:35:03;20.30;81.60
10968;DHT22;5536;49.602;10.980;2022-09-02T09:37:34;20.60;80.40
10968;DHT22;5536;49.602;10.980;2022-09-02T09:40:21;20.60;80.70
10968;DHT22;5536;49.602;10.980;2022-09-02T09:42:52;20.40;79.40
10968;DHT22;5536;49.602;10.980;2022-09-02T09:45:29;20.30;78.70
10968;DHT22;5536;49.602;10.980;2022-09-02T09:48:19;20.20;76.10
10968;DHT22;5536;49.602;10.980;2022-09-02T09:51:10;20.00;76.90
10968;DHT22;5536;49.602;10.980;2022-09-02T09:53:38;19.80;76.90
10968;DHT22;5536;49.602;10.980;2022-09-02T09:56:07;19.70;77.30
10968;DHT22;5536;49.602;10.980;2022-09-02T09:58:48;19.90;78.70
10968;DHT22;5536;49.602;10.980;2022-09-02T10:01:18;20.40;68.00
10968;DHT22;5536;49.602;10.980;2022-09-02T10:03:48;20.70;63.70
10968;DHT22;5536;49.602;10.980;2022-09-02T10:06:21;20.80;63.80
10968;DHT22;5536;49.602;10.980;2022-09-02T10:08:53;20.90;60.70
10968;DHT22;5536;49.602;10.980;2022-09-02T10:11:23;21.10;58.40
10968;DHT22;5536;49.602;10.980;2022-09-02T10:13:54;21.00;53.40
10968;DHT22;5536;49.602;10.980;2022-09-02T10:16:38;20.70;53.60
10968;DHT22;5536;49.602;10.980;2022-09-02T10:19:12;20.80;55.00
10968;DHT22;5536;49.602;10.980;2022-09-02T10:24:54;21.20;53.70
10968;DHT22;5536;49.602;10.980;2022-09-02T10:27:35;21.40;51.80
10968;DHT22;5536;49.602;10.980;2022-09-02T10:30:06;21.20;52.50
10968;DHT22;5536;49.602;10.980;2022-09-02T10:35:37;21.00;51.80
10968;DHT22;5536;49.602;10.980;2022-09-02T10:38:16;21.20;52.50
10968;DHT22;5536;49.602;10.980;2022-09-02T10:40:54;21.20;50.60
10968;DHT22;5536;49.602;10.980;2022-09-02T10:43:33;21.30;53.10
10968;DHT22;5536;49.602;10.980;2022-09-02T10:46:16;21.20;52.10
10968;DHT22;5536;49.602;10.980;2022-09-02T10:48:53;21.10;52.60
10968;DHT22;5536;49.602;10.980;2022-09-02T10:51:26;21.50;55.60
10968;DHT22;5536;49.602;10.980;2022-09-02T10:54:11;21.50;51.50
10968;DHT22;5536;49.602;10.980;2022-09-02T10:56:46;21.10;51.80
10968;DHT22;5536;49.602;10.980;2022-09-02T10:59:19;21.20;53.70
10968;DHT22;5536;49.602;10.980;2022-09-02T11:01:51;21.10;51.90
10968;DHT22;5536;49.602;10.980;2022-09-02T11:04:22;21.10;52.20
10968;DHT22;5536;49.602;10.980;2022-09-02T11:06:54;21.00;53.20
10968;DHT22;5536;49.602;10.980;2022-09-02T11:09:28;21.60;55.00
10968;DHT22;5536;49.602;10.980;2022-09-02T11:12:00;22.20;52.00
10968;DHT22;5536;49.602;10.980;2022-09-02T11:14:33;22.20;51.30
10968;DHT22;5536;49.602;10.980;2022-09-02T11:17:06;21.90;52.30
10968;DHT22;5536;49.602;10.980;2022-09-02T11:19:39;21.80;53.10
10968;DHT22;5536;49.602;10.980;2022-09-02T11:22:16;21.50;53.90
10968;DHT22;5536;49.602;10.980;2022-09-02T11:24:52;21.40;55.30
10968;DHT22;5536;49.602;10.980;2022-09-02T11:27:29;21.70;53.60
10968;DHT22;5536;49.602;10.980;2022-09-02T11:30:02;21.50;54.30
10968;DHT22;5536;49.602;10.980;2022-09-02T11:32:36;21.40;55.40
10968;DHT22;5536;49.602;10.980;2022-09-02T11:35:08;21.40;53.70
10968;DHT22;5536;49.602;10.980;2022-09-02T11:37:42;22.20;54.30
10968;DHT22;5536;49.602;10.980;2022-09-02T11:40:12;23.20;49.20
10968;DHT22;5536;49.602;10.980;2022-09-02T11:43:03;22.70;49.40
10968;DHT22;5536;49.602;10.980;2022-09-02T11:52:00;24.60;41.60
10968;DHT22;5536;49.602;10.980;2022-09-02T11:54:33;24.90;42.80
10968;DHT22;5536;49.602;10.980;2022-09-02T11:57:03;24.20;39.10
10968;DHT22;5536;49.602;10.980;2022-09-02T12:00:12;23.40;39.80
10968;DHT22;5536;49.602;10.980;2022-09-02T12:02:42;22.80;41.40
10968;DHT22;5536;49.602;10.980;2022-09-02T12:08:55;24.80;37.50
10968;DHT22;5536;49.602;10.980;2022-09-02T12:11:47;24.30;36.60
10968;DHT22;5536;49.602;10.980;2022-09-02T12:17:35;25.00;33.00
10968;DHT22;5536;49.602;10.980;2022-09-02T12:20:04;24.40;34.80
10968;DHT22;5536;49.602;10.980;2022-09-02T12:22:37;24.10;35.10
10968;DHT22;5536;49.602;10.980;2022-09-02T12:28:16;25.70;31.90
10968;DHT22;5536;49.602;10.980;2022-09-02T12:31:08;26.50;28.50
10968;DHT22;5536;49.602;10.980;2022-09-02T12:33:39;26.60;27.70
10968;DHT22;5536;49.602;10.980;2022-09-02T12:36:07;26.20;27.10
10968;DHT22;5536;49.602;10.980;2022-09-02T12:38:36;26.10;24.40
10968;DHT22;5536;49.602;10.980;2022-09-02T12:41:14;25.80;25.60
10968;DHT22;5536;49.602;10.980;2022-09-02T12:43:55;26.10;25.30
10968;DHT22;5536;49.602;10.980;2022-09-02T12:46:38;25.80;25.20
10968;DHT22;5536;49.602;10.980;2022-09-02T12:49:20;25.40;25.20
10968;DHT22;5536;49.602;10.980;2022-09-02T12:51:55;25.00;26.60
10968;DHT22;5536;49.602;10.980;2022-09-02T12:54:32;26.20;24.90
10968;DHT22;5536;49.602;10.980;2022-09-02T12:57:00;27.40;22.70
10968;DHT22;5536;49.602;10.980;2022-09-02T12:59:30;28.30;20.20
10968;DHT22;5536;49.602;10.980;2022-09-02T13:02:07;27.40;19.90
10968;DHT22;5536;49.602;10.980;2022-09-02T13:04:45;27.30;18.10
10968;DHT22;5536;49.602;10.980;2022-09-02T13:14:18;28.30;15.20
10968;DHT22;5536;49.602;10.980;2022-09-02T13:17:03;27.80;14.90
10968;DHT22;5536;49.602;10.980;2022-09-02T13:19:48;27.30;14.90
10968;DHT22;5536;49.602;10.980;2022-09-02T13:22:31;26.50;15.30
10968;DHT22;5536;49.602;10.980;2022-09-02T13:31:15;28.70;12.10
10968;DHT22;5536;49.602;10.980;2022-09-02T13:33:45;28.40;11.30
10968;DHT22;5536;49.602;10.980;2022-09-02T13:36:25;28.40;12.30
10968;DHT22;5536;49.602;10.980;2022-09-02T13:38:53;29.30;12.00
10968;DHT22;5536;49.602;10.980;2022-09-02T13:41:30;29.50;8.20
10968;DHT22;5536;49.602;10.980;2022-09-02T13:44:08;29.50;7.60
10968;DHT22;5536;49.602;10.980;2022-09-02T13:46:45;29.70;7.60
10968;DHT22;5536;49.602;10.980;2022-09-02T13:49:25;30.20;6.80
10968;DHT22;5536;49.602;10.980;2022-09-02T13:51:55;30.10;6.00
10968;DHT22;5536;49.602;10.980;2022-09-02T13:54:28;29.90;6.20
10968;DHT22;5536;49.602;10.980;2022-09-02T13:56:56;29.80;6.00
10968;DHT22;5536;49.602;10.980;2022-09-02T13:59:35;30.20;7.30
10968;DHT22;5536;49.602;10.980;2022-09-02T14:02:17;29.80;4.50
10968;DHT22;5536;49.602;10.980;2022-09-02T14:04:46;28.80;6.80
10968;DHT22;5536;49.602;10.980;2022-09-02T14:07:19;28.70;6.30
10968;DHT22;5536;49.602;10.980;2022-09-02T14:09:48;28.80;5.50
10968;DHT22;5536;49.602;10.980;2022-09-02T14:12:15;29.10;5.60
10968;DHT22;5536;49.602;10.980;2022-09-02T14:14:42;28.30;5.00
10968;DHT22;5536;49.602;10.980;2022-09-02T14:17:21;27.50;6.20
10968;DHT22;5536;49.602;10.980;2022-09-02T14:19:48;27.50;7.30
10968;DHT22;5536;49.602;10.980;2022-09-02T14:22:24;28.20;7.10
10968;DHT22;5536;49.602;10.980;2022-09-02T14:24:52;28.70;6.10
10968;DHT22;5536;49.602;10.980;2022-09-02T14:27:20;28.50;4.90
10968;DHT22;5536;49.602;10.980;2022-09-02T14:29:52;28.50;5.40
10968;DHT22;5536;49.602;10.980;2022-09-02T14:32:22;28.30;5.80
10968;DHT22;5536;49.602;10.980;2022-09-02T14:35:08;27.90;4.80
10968;DHT22;5536;49.602;10.980;2022-09-02T14:37:51;28.10;5.10
10968;DHT22;5536;49.602;10.980;2022-09-02T14:40:31;27.80;4.50
10968;DHT22;5536;49.602;10.980;2022-09-02T14:42:58;27.30;4.70
10968;DHT22;5536;49.602;10.980;2022-09-02T14:45:28;27.80;4.50
10968;DHT22;5536;49.602;10.980;2022-09-02T14:47:56;27.60;4.70
10968;DHT22;5536;49.602;10.980;2022-09-02T14:50:27;27.80;4.40
10968;DHT22;5536;49.602;10.980;2022-09-02T14:53:00;27.70;4.20
10968;DHT22;5536;49.602;10.980;2022-09-02T14:55:45;27.70;4.40
10968;DHT22;5536;49.602;10.980;2022-09-02T14:58:13;27.70;4.70
10968;DHT22;5536;49.602;10.980;2022-09-02T15:00:42;27.30;5.40
10968;DHT22;5536;49.602;10.980;2022-09-02T15:03:13;26.70;5.40
10968;DHT22;5536;49.602;10.980;2022-09-02T15:05:40;26.10;5.80
10968;DHT22;5536;49.602;10.980;2022-09-02T15:08:09;25.80;7.20
10968;DHT22;5536;49.602;10.980;2022-09-02T15:10:36;25.40;6.90
10968;DHT22;5536;49.602;10.980;2022-09-02T15:13:06;25.00;7.70
10968;DHT22;5536;49.602;10.980;2022-09-02T15:15:33;24.40;9.30
10968;DHT22;5536;49.602;10.980;2022-09-02T15:18:00;24.30;10.20
10968;DHT22;5536;49.602;10.980;2022-09-02T15:20:29;24.10;11.00
10968;DHT22;5536;49.602;10.980;2022-09-02T15:22:56;24.00;11.40
10968;DHT22;5536;49.602;10.980;2022-09-02T15:25:25;23.80;13.20
10968;DHT22;5536;49.602;10.980;2022-09-02T15:27:52;23.80;12.20
10968;DHT22;5536;49.602;10.980;2022-09-02T15:30:19;23.70;12.00
10968;DHT22;5536;49.602;10.980;2022-09-02T15:32:46;23.50;12.20
10968;DHT22;5536;49.602;10.980;2022-09-02T15:35:14;23.60;12.80
10968;DHT22;5536;49.602;10.980;2022-09-02T15:37:41;23.50;12.40
10968;DHT22;5536;49.602;10.980;2022-09-02T15:40:09;23.30;12.90
10968;DHT22;5536;49.602;10.980;2022-09-02T15:42:38;23.40;13.10
10968;DHT22;5536;49.602;10.980;2022-09-02T15:45:06;23.30;12.80
10968;DHT22;5536;49.602;10.980;2022-09-02T15:47:35;23.30;12.90
10968;DHT22;5536;49.602;10.980;2022-09-02T15:50:03;23.10;12.80
10968;DHT22;5536;49.602;10.980;2022-09-02T15:52:30;23.10;13.60
10968;DHT22;5536;49.602;10.980;2022-09-02T15:54:58;23.00;14.00
10968;DHT22;5536;49.602;10.980;2022-09-02T15:57:26;23.00;14.20
10968;DHT22;5536;49.602;10.980;2022-09-02T15:59:56;23.00;13.60
10968;DHT22;5536;49.602;10.980;2022-09-02T16:02:23;22.90;14.00
10968;DHT22;5536;49.602;10.980;2022-09-02T16:04:50;22.80;13.80
10968;DHT22;5536;49.602;10.980;2022-09-02T16:07:17;22.80;14.50
10968;DHT22;5536;49.602;10.980;2022-09-02T16:09:44;22.70;13.80
10968;DHT22;5536;49.602;10.980;2022-09-02T16:12:12;22.60;14.70
10968;DHT22;5536;49.602;10.980;2022-09-02T16:14:42;22.70;14.20
10968;DHT22;5536;49.602;10.980;2022-09-02T16:17:15;22.70;14.30
10968;DHT22;5536;49.602;10.980;2022-09-02T16:19:42;22.60;14.40
10968;DHT22;5536;49.602;10.980;2022-09-02T16:22:09;22.50;14.90
10968;DHT22;5536;49.602;10.980;2022-09-02T16:24:36;22.50;15.00
10968;DHT22;5536;49.602;10.980;2022-09-02T16:27:03;22.50;15.70
10968;DHT22;5536;49.602;10.980;2022-09-02T16:29:30;22.50;15.90